ADDS METAR Data INFO
IDs: Format: Raw Decoded Include TAF

Data at: 1323 UTC 11 Dec 2017

KPPF 111252Z AUTO 26003KT 10SM CLR M01/M06 A3010 RMK AO2 SLP199 T10111061
KPPF 111152Z AUTO 20005KT 10SM CLR M04/M06 A3009 RMK AO2 SLP196 T10441061 11022 21050 56017
KPPF 111052Z AUTO 00000KT 10SM CLR M04/M06 A3010 RMK AO2 SLP197 T10391056
KPPF 110952Z AUTO 00000KT 10SM CLR M04/M06 A3012 RMK AO2 SLP202 T10391061
KPPF 110852Z AUTO 00000KT 10SM CLR M04/M06 A3015 RMK AO2 SLP210 T10391056 58016
KPPF 110752Z AUTO 00000KT 10SM CLR M03/M06 A3017 RMK AO2 SLP218 T10331056
KPPF 110652Z AUTO 00000KT 10SM CLR M02/M06 A3018 RMK AO2 SLP220 T10221056
KPPF 110552Z AUTO 00000KT 10SM CLR M02/M06 A3019 RMK AO2 SLP226 T10221056 10083 21022 401781072 56003
KPPF 110452Z AUTO 00000KT 10SM CLR M02/M06 A3020 RMK AO2 SLP230 T10171056
KPPF 110352Z AUTO 00000KT 10SM CLR M01/M06 A3020 RMK AO2 SLP230 T10061056
KPPF 110252Z AUTO 00000KT 10SM CLR 00/M06 A3020 RMK AO2 SLP234 T00001056 53005
KPPF 110152Z AUTO 00000KT 10SM CLR 02/M05 A3019 RMK AO2 SLP231 T00171050
KPPF 110052Z AUTO 00000KT 10SM CLR 04/M05 A3020 RMK AO2 SLP233 T00441050
KPPF 102352Z AUTO 26003KT 10SM CLR 08/M06 A3019 RMK AO2 SLP228 T00781056 10178 20078 53006
KPPF 102252Z AUTO 28005KT 10SM CLR 13/M06 A3018 RMK AO2 SLP221 T01331056
KPPF 102152Z AUTO 30011G17KT 10SM CLR 17/M07 A3017 RMK AO2 SLP218 T01671067
KPPF 102052Z AUTO 30013G18KT 10SM CLR 18/M07 A3017 RMK AO2 SLP219 T01781067 56012
KPPF 101952Z AUTO 29010KT 10SM CLR 17/M07 A3018 RMK AO2 SLP223 T01721072
KPPF 101852Z AUTO 33010KT 10SM CLR 16/M08 A3019 RMK AO2 SLP228 T01611078
KPPF 101752Z AUTO 33012G18KT 10SM CLR 15/M07 A3021 RMK AO2 SLP232 T01501067 10150 21067 50000
KPPF 101652Z AUTO 31009KT 10SM CLR 12/M06 A3022 RMK AO2 SLP237 T01171056
KPPF 101552Z AUTO 22005KT 10SM CLR 06/M03 A3021 RMK AO2 SLP238 T00611028
KPPF 101452Z AUTO 22003KT 10SM CLR 01/M03 A3021 RMK AO2 SLP236 T00111028 53007
KPPF 101352Z AUTO 21003KT 10SM CLR M06/M07 A3020 RMK AO2 SLP237 T10561067
KPPF 101252Z AUTO 00000KT 10SM CLR M06/M07 A3019 RMK AO2 SLP231 T10611072
KPPF 101152Z AUTO 00000KT 10SM CLR M04/M07 A3018 RMK AO2 SLP229 T10441067 11017 21072 55013
KPPF 101052Z AUTO 18004KT 10SM CLR M02/M06 A3018 RMK AO2 SLP225 T10221061
KPPF 100952Z AUTO 18005KT 10SM CLR M03/M07 A3021 RMK AO2 SLP235 T10281067
KPPF 100852Z AUTO 00000KT 10SM CLR M06/M08 A3022 RMK AO2 SLP240 T10611078 56013
KPPF 100752Z AUTO 00000KT 10SM CLR M07/M08 A3023 RMK AO2 SLP242 T10721083
KPPF 100652Z AUTO 00000KT 10SM CLR M07/M09 A3024 RMK AO2 SLP246 T10671089
KPPF 100552Z AUTO 00000KT 10SM CLR M07/M08 A3026 RMK AO2 SLP254 T10671083 10017 21067 400941078 58005
KPPF 100452Z AUTO 00000KT 10SM CLR M06/M08 A3027 RMK AO2 SLP256 T10611083
KPPF 100352Z AUTO 00000KT 10SM CLR M06/M08 A3027 RMK AO2 SLP259 T10611078
KPPF 100252Z AUTO 00000KT 10SM CLR M05/M08 A3028 RMK AO2 SLP261 T10501083 53009
KPPF 100152Z AUTO 00000KT 10SM CLR M04/M08 A3027 RMK AO2 SLP259 T10391078